Time;durP1;ratioP1;P1;durP2;ratioP2;P2;SDS_P1;SDS_P2;PMS_P1;PMS_P2;Temp;Humidity;BMP_temperature;BMP_pressure;BME280_temperature;BME280_humidity;BME280_pressure;Samples;Min_cycle;Max_cycle;Signal;HPM_P1;HPM_P2
2023/06/02 00:00:12;;;;;;;16.90;8.90;;;14.10;99.90;;;;;;489857;242;28672;-79
2023/06/02 00:02:13;;;;;;;11.50;8.67;;;13.90;99.90;;;;;;489944;242;28707;-80
2023/06/02 00:04:17;;;;;;;13.37;8.37;;;13.90;99.90;;;;;;489800;242;28734;-79
2023/06/02 00:06:18;;;;;;;13.97;8.80;;;13.80;99.90;;;;;;489698;243;28753;-80
2023/06/02 00:08:17;;;;;;;9.13;7.67;;;13.90;99.90;;;;;;489623;243;28814;-79
2023/06/02 00:10:18;;;;;;;19.87;8.70;;;13.80;99.90;;;;;;489957;237;28675;-80
2023/06/02 00:12:19;;;;;;;12.63;8.90;;;13.80;99.90;;;;;;489879;242;28653;-79
2023/06/02 00:14:21;;;;;;;18.13;9.50;;;13.80;99.90;;;;;;489886;242;28797;-78
2023/06/02 00:16:22;;;;;;;15.00;9.37;;;13.70;99.90;;;;;;489831;242;28692;-80
2023/06/02 00:18:24;;;;;;;17.20;8.77;;;13.70;99.90;;;;;;489807;242;28651;-80
2023/06/02 00:20:27;;;;;;;14.10;9.57;;;13.60;99.90;;;;;;489859;243;28699;-78
2023/06/02 00:22:29;;;;;;;19.27;9.90;;;13.50;99.90;;;;;;489978;242;28748;-79
2023/06/02 00:24:30;;;;;;;14.40;8.37;;;13.50;99.90;;;;;;489989;242;28786;-79
2023/06/02 00:26:31;;;;;;;18.17;9.30;;;13.50;99.90;;;;;;489932;242;28783;-78
2023/06/02 00:28:32;;;;;;;12.97;9.57;;;13.50;99.90;;;;;;489920;243;28695;-79
2023/06/02 00:30:34;;;;;;;12.73;9.33;;;13.50;99.90;;;;;;489932;242;28692;-80
2023/06/02 00:32:35;;;;;;;12.23;9.80;;;13.40;99.90;;;;;;490114;242;28691;-80
2023/06/02 00:34:36;;;;;;;16.23;9.60;;;13.40;99.90;;;;;;490021;242;28691;-82
2023/06/02 00:36:37;;;;;;;11.60;8.90;;;13.30;99.90;;;;;;489879;242;28652;-79
2023/06/02 00:38:40;;;;;;;13.13;8.97;;;13.30;99.90;;;;;;489943;242;28669;-78
2023/06/02 00:40:40;;;;;;;15.80;10.17;;;13.30;99.90;;;;;;489963;242;28725;-79
2023/06/02 00:42:41;;;;;;;12.67;8.90;;;13.20;99.90;;;;;;489935;242;28762;-79
2023/06/02 00:44:43;;;;;;;19.83;10.90;;;13.30;99.90;;;;;;489883;242;28432;-81
2023/06/02 00:46:44;;;;;;;17.43;10.27;;;13.30;99.90;;;;;;489998;242;28374;-79
2023/06/02 00:48:45;;;;;;;17.20;9.63;;;13.20;99.90;;;;;;489972;242;28762;-79
2023/06/02 00:50:46;;;;;;;13.37;9.33;;;13.10;99.90;;;;;;489874;242;28461;-79
2023/06/02 00:52:48;;;;;;;15.23;9.30;;;13.10;99.90;;;;;;489981;242;28403;-79
2023/06/02 00:54:49;;;;;;;18.60;9.30;;;13.10;99.90;;;;;;489986;242;29245;-80
2023/06/02 00:56:51;;;;;;;17.63;9.60;;;13.00;99.90;;;;;;489990;242;28823;-81
2023/06/02 00:58:51;;;;;;;17.47;10.27;;;13.10;99.90;;;;;;489972;242;29391;-80
2023/06/02 01:00:54;;;;;;;12.80;10.10;;;13.00;99.90;;;;;;489946;242;28803;-80
2023/06/02 01:02:57;;;;;;;15.20;9.87;;;12.90;99.90;;;;;;489861;242;28496;-81
2023/06/02 01:04:57;;;;;;;16.77;9.40;;;12.80;99.90;;;;;;489511;243;28858;-80
2023/06/02 01:07:00;;;;;;;15.23;11.07;;;12.70;99.90;;;;;;489784;242;28105;-81
2023/06/02 01:08:58;;;;;;;12.17;9.33;;;12.70;99.90;;;;;;489656;243;28292;-80
2023/06/02 01:10:59;;;;;;;16.30;10.90;;;12.80;99.90;;;;;;489849;242;28047;-81
2023/06/02 01:13:00;;;;;;;16.83;10.80;;;12.70;99.90;;;;;;489874;242;28417;-79
2023/06/02 01:15:01;;;;;;;14.83;10.97;;;12.70;99.90;;;;;;489811;242;28258;-79
2023/06/02 01:17:03;;;;;;;14.20;10.93;;;12.60;99.90;;;;;;489916;242;28578;-82
2023/06/02 01:19:06;;;;;;;15.80;10.53;;;12.50;99.90;;;;;;489875;242;28216;-80
2023/06/02 01:21:06;;;;;;;17.77;11.93;;;12.50;99.90;;;;;;489730;243;28338;-80
2023/06/02 01:23:08;;;;;;;15.07;11.53;;;12.40;99.90;;;;;;489843;242;28042;-79
2023/06/02 01:25:08;;;;;;;16.33;10.70;;;12.40;99.90;;;;;;489766;242;28195;-80
2023/06/02 01:27:14;;;;;;;14.93;10.23;;;;;;;;;;489888;242;28063;-79
2023/06/02 01:29:11;;;;;;;14.43;10.20;;;12.40;99.90;;;;;;489392;243;26433;-82
2023/06/02 01:31:13;;;;;;;14.47;9.80;;;12.30;99.90;;;;;;489762;242;28263;-80
2023/06/02 01:33:14;;;;;;;16.90;11.33;;;12.30;99.90;;;;;;489835;242;28315;-81
2023/06/02 01:35:15;;;;;;;14.23;10.73;;;12.30;99.90;;;;;;489753;242;28309;-80
2023/06/02 01:37:16;;;;;;;15.63;11.33;;;12.20;99.90;;;;;;489802;242;28187;-80
2023/06/02 01:39:18;;;;;;;19.50;11.90;;;12.20;99.90;;;;;;489873;242;28271;-81
2023/06/02 01:41:19;;;;;;;17.07;11.70;;;12.20;99.90;;;;;;489837;242;28387;-80
2023/06/02 01:43:20;;;;;;;17.93;11.40;;;12.10;99.90;;;;;;489885;242;28283;-79
2023/06/02 01:45:21;;;;;;;15.73;10.40;;;12.10;99.90;;;;;;489757;242;28150;-81
2023/06/02 01:47:23;;;;;;;16.57;11.27;;;12.10;99.90;;;;;;489807;242;28120;-80
2023/06/02 01:49:24;;;;;;;19.07;11.43;;;12.10;99.90;;;;;;489817;242;28168;-82
2023/06/02 01:51:25;;;;;;;19.90;11.50;;;12.00;99.90;;;;;;489823;242;28354;-82
2023/06/02 01:53:26;;;;;;;23.90;13.47;;;11.90;99.90;;;;;;489793;242;28236;-80
2023/06/02 01:55:28;;;;;;;14.77;11.00;;;11.80;99.90;;;;;;489737;242;28233;-84
2023/06/02 01:57:29;;;;;;;16.50;12.10;;;11.80;99.90;;;;;;489798;242;28215;-81
2023/06/02 01:59:30;;;;;;;16.57;11.33;;;11.80;99.90;;;;;;489754;242;28305;-81
2023/06/02 02:01:31;;;;;;;15.10;11.00;;;11.70;99.90;;;;;;489842;242;28407;-81
2023/06/02 02:03:33;;;;;;;18.37;11.50;;;11.70;99.90;;;;;;489803;242;28180;-80
2023/06/02 02:05:34;;;;;;;15.70;10.57;;;11.80;99.90;;;;;;489731;242;28729;-82
2023/06/02 02:07:36;;;;;;;18.60;10.77;;;;;;;;;;489742;242;28191;-81
2023/06/02 02:09:38;;;;;;;18.07;10.77;;;11.50;99.90;;;;;;489787;243;26595;-81
2023/06/02 02:11:39;;;;;;;13.33;9.90;;;11.50;99.90;;;;;;489830;242;28869;-80
2023/06/02 02:13:40;;;;;;;17.40;11.17;;;11.50;99.90;;;;;;489792;242;28343;-82
2023/06/02 02:15:41;;;;;;;16.67;11.50;;;11.50;99.90;;;;;;489738;242;28954;-80
2023/06/02 02:17:47;;;;;;;17.17;10.80;;;11.40;99.90;;;;;;489747;242;28170;-80
2023/06/02 02:19:44;;;;;;;14.40;10.20;;;11.30;99.90;;;;;;489315;243;28273;-80
2023/06/02 02:21:45;;;;;;;13.90;9.57;;;11.30;99.90;;;;;;489787;242;28475;-79
2023/06/02 02:23:46;;;;;;;16.70;11.63;;;11.30;99.90;;;;;;489745;242;28793;-82
2023/06/02 02:25:48;;;;;;;17.03;11.00;;;11.30;99.90;;;;;;489754;242;28266;-80
2023/06/02 02:27:49;;;;;;;17.33;11.00;;;11.20;99.90;;;;;;489777;242;28950;-82
2023/06/02 02:29:50;;;;;;;14.60;10.23;;;11.20;99.90;;;;;;489750;242;28036;-81
2023/06/02 02:31:52;;;;;;;15.03;10.40;;;11.20;99.90;;;;;;489906;242;28202;-79
2023/06/02 02:33:53;;;;;;;16.67;11.37;;;11.10;99.90;;;;;;489867;242;28139;-81
2023/06/02 02:35:54;;;;;;;18.87;11.63;;;11.10;99.90;;;;;;489828;242;28404;-81
2023/06/02 02:37:55;;;;;;;21.00;12.10;;;11.10;99.90;;;;;;489838;242;28384;-80
2023/06/02 02:39:57;;;;;;;14.53;10.50;;;11.10;99.90;;;;;;489912;242;28039;-82
2023/06/02 02:41:58;;;;;;;14.10;11.30;;;11.00;99.90;;;;;;489876;242;28840;-80
2023/06/02 02:44:00;;;;;;;13.97;10.23;;;;;;;;;;489871;242;28478;-80
2023/06/02 02:46:01;;;;;;;14.27;9.70;;;10.90;99.90;;;;;;489804;243;26902;-81
2023/06/02 02:48:03;;;;;;;15.40;10.13;;;11.00;99.90;;;;;;489859;242;28486;-83
2023/06/02 02:50:04;;;;;;;16.33;10.80;;;11.00;99.90;;;;;;489858;242;28581;-81
2023/06/02 02:52:06;;;;;;;15.23;10.50;;;11.00;99.90;;;;;;489917;242;28247;-81
2023/06/02 02:54:07;;;;;;;14.40;9.60;;;10.90;99.90;;;;;;489906;242;28866;-81
2023/06/02 02:56:09;;;;;;;20.60;11.50;;;10.90;99.90;;;;;;489874;242;28015;-80
2023/06/02 02:58:10;;;;;;;15.90;11.20;;;10.90;99.90;;;;;;489876;242;28059;-80
2023/06/02 03:00:13;;;;;;;13.53;9.43;;;10.80;99.90;;;;;;489809;242;28476;-81
2023/06/02 03:02:13;;;;;;;15.50;9.97;;;10.80;99.90;;;;;;489667;243;27904;-81
2023/06/02 03:04:22;;;;;;;18.10;11.17;;;10.70;99.90;;;;;;489777;242;28298;-79
2023/06/02 03:06:22;;;;;;;18.13;10.87;;;10.70;99.90;;;;;;489680;243;28528;-81
2023/06/02 03:08:22;;;;;;;16.27;9.70;;;10.70;99.90;;;;;;489798;242;28169;-81
2023/06/02 03:10:24;;;;;;;21.30;10.70;;;10.70;99.90;;;;;;489742;242;28406;-82
2023/06/02 03:12:25;;;;;;;17.73;11.57;;;10.70;99.90;;;;;;489808;242;28621;-79
2023/06/02 03:14:28;;;;;;;17.20;10.83;;;10.60;99.90;;;;;;489712;243;28088;-81
2023/06/02 03:16:28;;;;;;;20.60;12.07;;;10.60;99.90;;;;;;489711;243;28191;-82
2023/06/02 03:18:29;;;;;;;17.20;10.30;;;10.50;99.90;;;;;;489817;242;28119;-79
2023/06/02 03:20:30;;;;;;;14.47;10.10;;;10.50;99.90;;;;;;489818;242;28323;-81
2023/06/02 03:22:33;;;;;;;13.40;10.27;;;10.50;99.90;;;;;;489755;242;28213;-81
2023/06/02 03:24:32;;;;;;;21.83;11.60;;;10.50;99.90;;;;;;489655;243;28185;-81
2023/06/02 03:26:34;;;;;;;15.20;10.70;;;10.40;99.90;;;;;;489829;242;28350;-81
2023/06/02 03:28:35;;;;;;;16.70;11.40;;;10.40;99.90;;;;;;489810;242;28138;-80
2023/06/02 03:30:37;;;;;;;17.17;11.97;;;;;;;;;;489681;242;28147;-82
2023/06/02 03:32:39;;;;;;;17.63;11.07;;;10.30;99.90;;;;;;489738;243;27278;-80
2023/06/02 03:34:40;;;;;;;16.90;12.00;;;10.40;99.90;;;;;;489745;242;28511;-83
2023/06/02 03:36:41;;;;;;;15.80;11.50;;;10.50;99.90;;;;;;489763;242;28085;-81
2023/06/02 03:38:44;;;;;;;16.43;11.10;;;;;;;;;;489819;242;28245;-80
2023/06/02 03:40:45;;;;;;;13.53;10.10;;;10.40;99.90;;;;;;489819;243;27051;-80
2023/06/02 03:42:46;;;;;;;10.93;8.80;;;10.50;99.90;;;;;;489787;242;28424;-80
2023/06/02 03:44:47;;;;;;;11.57;8.97;;;10.60;99.90;;;;;;489743;242;28008;-81
2023/06/02 03:46:50;;;;;;;15.70;11.30;;;;;;;;;;489766;242;27937;-80
2023/06/02 03:48:51;;;;;;;17.53;12.00;;;10.40;99.90;;;;;;489863;243;27051;-80
2023/06/02 03:50:52;;;;;;;13.50;10.90;;;10.30;99.90;;;;;;489796;242;28355;-82
2023/06/02 03:52:54;;;;;;;13.70;9.27;;;10.40;99.90;;;;;;489770;242;28240;-80
2023/06/02 03:54:55;;;;;;;17.20;11.37;;;10.40;99.90;;;;;;489869;242;28154;-83
2023/06/02 03:56:56;;;;;;;12.70;10.13;;;10.40;99.90;;;;;;489821;242;28356;-81
2023/06/02 03:58:57;;;;;;;16.10;11.40;;;10.60;99.90;;;;;;489730;242;27919;-81
2023/06/02 04:00:59;;;;;;;14.73;10.73;;;10.50;99.90;;;;;;489736;242;28102;-81
2023/06/02 04:03:00;;;;;;;11.43;9.90;;;10.30;99.90;;;;;;489808;242;28342;-79
2023/06/02 04:05:01;;;;;;;19.23;12.63;;;10.20;99.90;;;;;;489752;242;28362;-81
2023/06/02 04:07:02;;;;;;;18.33;11.93;;;10.20;99.90;;;;;;489811;242;28880;-81
2023/06/02 04:09:04;;;;;;;16.63;11.30;;;10.10;99.90;;;;;;489801;242;28281;-78
2023/06/02 04:11:05;;;;;;;17.60;12.50;;;10.20;99.90;;;;;;489781;242;28200;-82
2023/06/02 04:13:06;;;;;;;21.60;12.60;;;10.10;99.90;;;;;;489782;242;28248;-80
2023/06/02 04:15:07;;;;;;;15.90;11.33;;;10.10;99.90;;;;;;489735;242;28330;-81
2023/06/02 04:17:09;;;;;;;15.63;11.77;;;10.10;99.90;;;;;;489811;242;28826;-82
2023/06/02 04:19:10;;;;;;;16.53;10.33;;;10.20;99.90;;;;;;489833;242;28299;-81
2023/06/02 04:21:11;;;;;;;19.43;11.50;;;10.20;99.90;;;;;;489830;242;28944;-82
2023/06/02 04:23:12;;;;;;;18.03;11.33;;;10.20;99.90;;;;;;489891;242;28171;-80
2023/06/02 04:25:14;;;;;;;15.13;11.07;;;10.40;99.90;;;;;;489830;242;28435;-81
2023/06/02 04:27:15;;;;;;;17.60;12.07;;;10.50;99.90;;;;;;489795;242;28091;-81
2023/06/02 04:29:16;;;;;;;13.90;10.30;;;10.20;99.90;;;;;;489845;242;28098;-79
2023/06/02 04:31:26;;;;;;;14.17;9.40;;;10.30;99.90;;;;;;489811;242;28089;-80
2023/06/02 04:33:20;;;;;;;15.63;11.60;;;;;;;;;;489122;241;28248;-80
2023/06/02 04:35:21;;;;;;;19.17;12.30;;;10.30;99.90;;;;;;489764;243;26793;-80
2023/06/02 04:37:23;;;;;;;20.47;13.37;;;10.10;99.90;;;;;;489886;242;28578;-79
2023/06/02 04:39:24;;;;;;;15.17;11.50;;;10.00;99.90;;;;;;489833;242;28335;-80
2023/06/02 04:41:25;;;;;;;17.37;13.13;;;10.20;99.90;;;;;;489821;242;28352;-81
2023/06/02 04:43:26;;;;;;;16.87;11.57;;;10.10;99.90;;;;;;489812;242;28687;-81
2023/06/02 04:45:27;;;;;;;18.03;11.40;;;10.00;99.90;;;;;;489829;242;28504;-82
2023/06/02 04:47:29;;;;;;;16.40;11.13;;;10.10;99.90;;;;;;489864;242;28141;-81
2023/06/02 04:49:30;;;;;;;20.70;11.33;;;10.10;99.90;;;;;;489946;242;27933;-80
2023/06/02 04:51:32;;;;;;;18.53;12.00;;;10.10;99.90;;;;;;489811;242;28350;-80
2023/06/02 04:53:32;;;;;;;18.67;11.67;;;10.30;99.90;;;;;;489807;242;28240;-81
2023/06/02 04:55:34;;;;;;;16.60;11.90;;;10.30;99.90;;;;;;489787;242;28264;-81
2023/06/02 04:57:36;;;;;;;16.00;11.80;;;10.30;99.90;;;;;;489827;242;28378;-80
2023/06/02 04:59:36;;;;;;;18.17;11.83;;;10.20;99.90;;;;;;489852;242;28415;-80
2023/06/02 05:01:37;;;;;;;15.57;11.73;;;10.40;99.90;;;;;;489743;242;28207;-80
2023/06/02 05:03:39;;;;;;;16.87;10.97;;;10.30;99.90;;;;;;489856;242;27931;-81
2023/06/02 05:05:40;;;;;;;15.60;11.80;;;10.40;99.90;;;;;;489768;242;28252;-79
2023/06/02 05:07:41;;;;;;;17.87;11.90;;;10.70;99.90;;;;;;489891;243;28164;-80
2023/06/02 05:09:42;;;;;;;15.80;12.20;;;10.60;99.90;;;;;;489898;243;28245;-80
2023/06/02 05:11:45;;;;;;;15.07;11.60;;;;;;;;;;489863;242;28581;-80
2023/06/02 05:13:46;;;;;;;17.27;12.40;;;10.50;99.90;;;;;;489988;243;27148;-82
2023/06/02 05:15:47;;;;;;;16.30;10.90;;;10.40;99.90;;;;;;489916;242;28070;-79
2023/06/02 05:17:49;;;;;;;16.00;11.40;;;10.60;99.90;;;;;;489935;242;28214;-79
2023/06/02 05:19:50;;;;;;;16.87;11.50;;;10.60;99.90;;;;;;489992;242;28501;-80
2023/06/02 05:21:51;;;;;;;16.33;10.97;;;10.50;99.90;;;;;;489970;242;28600;-81
2023/06/02 05:23:52;;;;;;;17.10;11.10;;;10.50;99.90;;;;;;489861;242;28382;-80
2023/06/02 05:25:54;;;;;;;17.63;11.13;;;10.80;99.90;;;;;;489822;242;28201;-81
2023/06/02 05:27:55;;;;;;;15.73;11.17;;;10.90;99.90;;;;;;489931;242;28226;-80
2023/06/02 05:29:56;;;;;;;16.93;11.77;;;11.00;99.90;;;;;;489907;242;27989;-79
2023/06/02 05:31:57;;;;;;;15.53;12.37;;;11.10;99.90;;;;;;489858;242;28102;-81
2023/06/02 05:33:59;;;;;;;15.47;11.27;;;11.10;99.90;;;;;;489770;242;28020;-79
2023/06/02 05:36:00;;;;;;;18.60;11.50;;;10.80;99.90;;;;;;489963;242;28177;-81
2023/06/02 05:38:01;;;;;;;15.03;12.20;;;10.70;99.90;;;;;;489830;242;27841;-81
2023/06/02 05:40:03;;;;;;;16.10;10.73;;;10.70;99.90;;;;;;489807;243;28058;-80
2023/06/02 05:42:04;;;;;;;19.23;12.90;;;10.90;99.90;;;;;;489879;242;28005;-83
2023/06/02 05:44:05;;;;;;;21.47;12.83;;;10.70;99.90;;;;;;489830;242;28231;-81
2023/06/02 05:46:06;;;;;;;16.70;10.50;;;10.60;99.90;;;;;;489844;242;28026;-80
2023/06/02 05:48:08;;;;;;;17.20;13.33;;;10.70;99.90;;;;;;489855;242;28439;-80
2023/06/02 05:50:09;;;;;;;20.00;11.47;;;10.70;99.90;;;;;;489922;242;27935;-80
2023/06/02 05:52:10;;;;;;;20.43;11.60;;;10.80;99.90;;;;;;489805;242;28477;-80
2023/06/02 05:54:11;;;;;;;15.17;10.07;;;10.80;99.90;;;;;;489966;242;28106;-79
2023/06/02 05:56:13;;;;;;;15.57;11.37;;;11.00;99.90;;;;;;489865;242;28583;-81
2023/06/02 05:58:14;;;;;;;19.47;10.93;;;11.00;99.90;;;;;;489846;242;28792;-82
2023/06/02 06:00:15;;;;;;;17.33;11.43;;;11.10;99.90;;;;;;489900;242;28544;-80
2023/06/02 06:02:16;;;;;;;18.67;12.10;;;11.00;99.90;;;;;;489792;242;28015;-80
2023/06/02 06:04:18;;;;;;;18.47;11.87;;;10.90;99.90;;;;;;489879;242;28447;-80
2023/06/02 06:06:19;;;;;;;17.10;11.30;;;10.80;99.90;;;;;;489848;242;28243;-80
2023/06/02 06:08:20;;;;;;;16.67;11.97;;;10.80;99.90;;;;;;489880;243;27922;-80
2023/06/02 06:10:21;;;;;;;16.13;11.50;;;10.70;99.90;;;;;;489770;242;28086;-80
2023/06/02 06:12:23;;;;;;;15.97;11.03;;;10.70;99.90;;;;;;479461;240;28320;-80
2023/06/02 06:14:24;;;;;;;14.50;11.03;;;10.80;99.90;;;;;;464028;257;28614;-81
2023/06/02 06:16:25;;;;;;;18.77;11.30;;;10.80;99.90;;;;;;471905;252;28559;-81
2023/06/02 06:18:28;;;;;;;16.40;12.07;;;;;;;;;;471897;252;28356;-79
2023/06/02 06:20:29;;;;;;;17.57;10.60;;;10.50;99.90;;;;;;471908;252;27235;-81
2023/06/02 06:22:30;;;;;;;16.07;10.30;;;10.70;99.90;;;;;;471983;252;28415;-80
2023/06/02 06:24:31;;;;;;;14.50;11.10;;;10.90;99.90;;;;;;471842;248;28114;-80
2023/06/02 06:26:33;;;;;;;17.03;12.23;;;11.00;99.90;;;;;;471971;248;28595;-80
2023/06/02 06:28:34;;;;;;;18.67;10.80;;;10.80;99.90;;;;;;472073;248;28223;-81
2023/06/02 06:30:35;;;;;;;13.93;10.83;;;11.00;99.90;;;;;;471882;252;28206;-82
2023/06/02 06:32:36;;;;;;;15.00;11.30;;;11.00;99.90;;;;;;472030;253;28813;-80
2023/06/02 06:34:38;;;;;;;17.30;10.50;;;11.10;99.90;;;;;;471920;253;28540;-81
2023/06/02 06:36:39;;;;;;;14.00;10.40;;;11.30;99.90;;;;;;471926;248;28165;-80
2023/06/02 06:38:40;;;;;;;15.50;10.50;;;11.20;99.90;;;;;;471924;248;28417;-79
2023/06/02 06:40:41;;;;;;;13.60;10.17;;;11.20;99.90;;;;;;471937;253;28750;-79
2023/06/02 06:42:43;;;;;;;13.40;10.17;;;11.00;99.90;;;;;;471915;248;29099;-79
2023/06/02 06:44:44;;;;;;;12.23;9.87;;;11.40;99.90;;;;;;471923;253;28419;-81
2023/06/02 06:46:45;;;;;;;12.57;10.57;;;11.60;99.90;;;;;;472090;248;28283;-79
2023/06/02 06:48:46;;;;;;;14.67;10.10;;;11.60;99.90;;;;;;472081;253;28180;-79
2023/06/02 06:50:48;;;;;;;9.93;8.90;;;11.70;99.90;;;;;;472112;253;28128;-79
2023/06/02 06:52:50;;;;;;;11.63;9.60;;;11.80;99.90;;;;;;472010;249;28375;-80
2023/06/02 06:54:50;;;;;;;10.00;8.40;;;11.80;99.90;;;;;;471929;253;28246;-81
2023/06/02 06:56:51;;;;;;;16.80;9.93;;;11.90;99.90;;;;;;472036;253;28624;-80
2023/06/02 06:58:53;;;;;;;11.93;8.67;;;12.20;99.90;;;;;;471875;249;28237;-79
2023/06/02 07:00:54;;;;;;;11.57;8.90;;;12.50;99.90;;;;;;471914;253;28397;-79
2023/06/02 07:02:55;;;;;;;11.63;9.53;;;12.70;99.90;;;;;;471975;248;28466;-79
2023/06/02 07:04:56;;;;;;;12.93;9.60;;;12.40;99.90;;;;;;471924;253;28534;-80
2023/06/02 07:06:58;;;;;;;12.93;8.73;;;12.50;99.90;;;;;;471932;248;28664;-80
2023/06/02 07:08:59;;;;;;;10.03;8.50;;;12.60;99.90;;;;;;471989;252;28920;-80
2023/06/02 07:11:00;;;;;;;16.20;9.20;;;12.80;99.90;;;;;;471985;252;28493;-82
2023/06/02 07:13:02;;;;;;;12.87;9.00;;;12.60;99.90;;;;;;471974;252;28911;-80
2023/06/02 07:15:03;;;;;;;11.30;9.30;;;12.50;99.90;;;;;;471947;252;29309;-80
2023/06/02 07:17:04;;;;;;;9.10;7.93;;;12.70;99.90;;;;;;471893;252;29400;-80
2023/06/02 07:19:05;;;;;;;12.20;9.40;;;12.60;99.90;;;;;;471960;252;29037;-80
2023/06/02 07:21:07;;;;;;;11.80;9.30;;;12.80;99.90;;;;;;471965;248;28718;-82
2023/06/02 07:23:09;;;;;;;13.63;9.00;;;12.70;99.90;;;;;;471927;252;28931;-80
2023/06/02 07:25:09;;;;;;;10.80;8.53;;;13.00;99.90;;;;;;471800;252;28892;-83
2023/06/02 07:27:10;;;;;;;11.73;9.00;;;12.90;99.90;;;;;;471986;252;28896;-81
2023/06/02 07:29:12;;;;;;;13.70;9.00;;;12.60;99.90;;;;;;471891;252;29366;-81
2023/06/02 07:31:13;;;;;;;9.17;7.90;;;12.30;99.90;;;;;;471943;252;28643;-81
2023/06/02 07:33:14;;;;;;;11.43;9.00;;;12.10;99.90;;;;;;471907;252;29009;-80
2023/06/02 07:35:16;;;;;;;12.50;9.50;;;12.00;99.90;;;;;;471841;248;29026;-81
2023/06/02 07:37:17;;;;;;;13.20;9.30;;;12.00;99.90;;;;;;471968;252;28887;-81
2023/06/02 07:39:18;;;;;;;12.87;9.53;;;11.80;99.90;;;;;;471928;252;28573;-79
2023/06/02 07:41:19;;;;;;;10.77;9.67;;;11.90;99.90;;;;;;471969;252;28430;-80
2023/06/02 07:43:20;;;;;;;11.03;9.37;;;12.10;99.90;;;;;;472040;252;28442;-80
2023/06/02 07:45:22;;;;;;;12.90;9.67;;;11.90;99.90;;;;;;472119;252;28321;-81
2023/06/02 07:47:23;;;;;;;16.33;9.60;;;12.00;99.90;;;;;;472084;252;28343;-80
2023/06/02 07:49:24;;;;;;;12.07;9.23;;;12.00;99.90;;;;;;471975;252;28483;-80
2023/06/02 07:51:25;;;;;;;13.17;9.27;;;12.10;99.90;;;;;;472119;252;28331;-79
2023/06/02 07:53:27;;;;;;;10.83;8.70;;;12.30;99.90;;;;;;471968;252;28421;-80
2023/06/02 07:55:28;;;;;;;10.37;8.40;;;12.50;99.90;;;;;;472109;252;28490;-79
2023/06/02 07:57:29;;;;;;;17.63;9.23;;;12.50;99.90;;;;;;471948;252;28515;-78
2023/06/02 07:59:30;;;;;;;16.43;8.20;;;12.40;99.90;;;;;;491616;241;28495;-83
2023/06/02 08:01:32;;;;;;;15.40;8.87;;;12.40;99.90;;;;;;492902;241;28487;-83
2023/06/02 08:03:33;;;;;;;11.10;9.10;;;12.50;99.90;;;;;;493760;241;28404;-80
2023/06/02 08:05:35;;;;;;;13.20;8.60;;;12.50;99.90;;;;;;493796;241;28179;-80
2023/06/02 08:07:35;;;;;;;10.57;8.10;;;12.40;99.90;;;;;;493816;241;28427;-80
2023/06/02 08:09:37;;;;;;;11.17;9.07;;;12.40;99.90;;;;;;493812;241;28349;-79
2023/06/02 08:11:38;;;;;;;12.87;8.47;;;12.50;99.90;;;;;;493720;240;28794;-81
2023/06/02 08:13:39;;;;;;;11.50;8.57;;;12.60;99.90;;;;;;493769;241;28397;-79
2023/06/02 08:15:41;;;;;;;18.00;9.00;;;12.60;99.90;;;;;;493715;241;28471;-79
2023/06/02 08:17:42;;;;;;;11.77;8.77;;;12.40;99.90;;;;;;493736;241;28312;-80
2023/06/02 08:19:43;;;;;;;9.80;8.23;;;12.50;99.90;;;;;;493716;241;28371;-79
2023/06/02 08:21:45;;;;;;;13.03;9.20;;;12.80;99.90;;;;;;493722;241;28206;-79
2023/06/02 08:23:46;;;;;;;14.73;9.37;;;12.60;99.90;;;;;;493742;241;28499;-80
2023/06/02 08:25:47;;;;;;;18.67;9.73;;;12.60;99.90;;;;;;493735;241;28403;-79
2023/06/02 08:27:48;;;;;;;16.07;8.60;;;12.50;99.90;;;;;;493711;241;28073;-80
2023/06/02 08:29:53;;;;;;;12.87;9.30;;;12.60;99.90;;;;;;493781;241;28422;-79
2023/06/02 08:31:54;;;;;;;13.30;9.20;;;12.70;99.90;;;;;;493788;241;28194;-81
2023/06/02 08:33:55;;;;;;;12.47;8.73;;;12.70;99.90;;;;;;493799;241;28067;-79
2023/06/02 08:35:56;;;;;;;19.20;8.70;;;12.70;99.90;;;;;;493758;241;28410;-80
2023/06/02 08:37:57;;;;;;;10.57;8.87;;;13.00;99.90;;;;;;493848;241;28190;-80
2023/06/02 08:39:59;;;;;;;14.20;8.57;;;12.80;99.90;;;;;;493786;241;28471;-80
2023/06/02 08:42:01;;;;;;;10.73;7.40;;;13.10;99.90;;;;;;493824;241;28473;-80
2023/06/02 08:44:01;;;;;;;9.70;7.73;;;13.10;99.90;;;;;;493639;240;28752;-79
2023/06/02 08:46:02;;;;;;;13.70;7.93;;;13.40;99.90;;;;;;493708;241;28621;-79
2023/06/02 08:48:04;;;;;;;9.63;7.80;;;13.30;99.90;;;;;;493746;241;28699;-79
2023/06/02 08:50:05;;;;;;;8.77;7.43;;;13.30;99.90;;;;;;493813;241;28815;-80
2023/06/02 08:52:06;;;;;;;11.13;8.33;;;13.40;99.90;;;;;;493658;241;28698;-80
2023/06/02 08:54:07;;;;;;;10.40;7.77;;;13.40;99.90;;;;;;493756;241;29494;-80
2023/06/02 08:56:09;;;;;;;10.77;7.77;;;13.30;99.90;;;;;;493618;241;29295;-78
2023/06/02 08:58:10;;;;;;;12.87;8.10;;;13.50;99.90;;;;;;493698;241;29111;-79
2023/06/02 09:00:11;;;;;;;9.10;7.20;;;13.60;99.90;;;;;;493683;241;28770;-81
2023/06/02 09:02:12;;;;;;;16.27;7.77;;;13.50;99.90;;;;;;493718;241;28817;-80
2023/06/02 09:04:14;;;;;;;14.23;7.70;;;13.50;99.90;;;;;;493725;241;28689;-79
2023/06/02 09:06:15;;;;;;;10.20;7.70;;;13.70;99.90;;;;;;493765;241;28794;-80
2023/06/02 09:08:16;;;;;;;10.70;7.50;;;13.60;99.90;;;;;;493807;241;28730;-79
2023/06/02 09:10:17;;;;;;;10.00;8.10;;;13.70;99.90;;;;;;493708;241;28730;-80
2023/06/02 09:12:19;;;;;;;12.40;8.47;;;13.60;99.90;;;;;;493650;241;28876;-80
2023/06/02 09:14:20;;;;;;;14.50;7.73;;;13.40;99.90;;;;;;493690;241;28747;-80
2023/06/02 09:16:21;;;;;;;9.60;8.57;;;13.60;99.90;;;;;;493679;241;28703;-80
2023/06/02 09:18:23;;;;;;;11.10;7.67;;;13.60;99.90;;;;;;493716;241;28809;-79
2023/06/02 09:20:26;;;;;;;9.20;7.70;;;13.30;99.90;;;;;;493774;241;28394;-79
2023/06/02 09:22:25;;;;;;;7.33;6.63;;;13.60;99.90;;;;;;493577;241;28842;-79
2023/06/02 09:24:26;;;;;;;10.43;8.10;;;13.80;99.90;;;;;;493786;241;28701;-80
2023/06/02 09:26:28;;;;;;;8.43;7.47;;;14.00;99.90;;;;;;493670;241;28433;-79
2023/06/02 09:28:29;;;;;;;10.80;7.97;;;13.90;99.90;;;;;;493667;241;28376;-79
2023/06/02 09:30:30;;;;;;;9.67;6.53;;;13.80;99.90;;;;;;493705;241;28532;-79
2023/06/02 09:32:31;;;;;;;11.63;7.67;;;14.10;99.90;;;;;;493663;241;28696;-80
2023/06/02 09:34:32;;;;;;;12.00;6.90;;;14.20;99.90;;;;;;493515;241;28701;-79
2023/06/02 09:36:34;;;;;;;10.70;7.17;;;14.30;99.90;;;;;;493640;241;28747;-78
2023/06/02 09:38:35;;;;;;;10.87;7.57;;;14.50;99.90;;;;;;493599;241;28772;-80
2023/06/02 09:40:36;;;;;;;10.90;7.00;;;14.40;99.90;;;;;;493707;241;28783;-80
2023/06/02 09:42:37;;;;;;;10.03;5.97;;;14.40;99.90;;;;;;493795;241;29127;-81
2023/06/02 09:44:39;;;;;;;9.87;6.87;;;14.60;99.90;;;;;;493697;241;28812;-81
2023/06/02 09:46:40;;;;;;;10.23;7.03;;;14.90;99.90;;;;;;493818;241;28722;-79
2023/06/02 09:48:41;;;;;;;7.10;6.30;;;14.80;99.90;;;;;;493651;241;29342;-81
2023/06/02 09:50:42;;;;;;;8.03;5.63;;;14.90;99.90;;;;;;493767;241;29201;-82
2023/06/02 09:52:44;;;;;;;9.30;6.80;;;15.10;99.90;;;;;;493744;241;29140;-80
2023/06/02 09:54:45;;;;;;;12.00;6.27;;;15.00;99.90;;;;;;493645;241;28702;-81
2023/06/02 09:56:46;;;;;;;8.90;6.00;;;14.80;99.90;;;;;;493631;241;28691;-83
2023/06/02 09:58:47;;;;;;;10.57;6.13;;;15.10;99.90;;;;;;493640;241;28805;-82
2023/06/02 10:00:49;;;;;;;6.93;5.73;;;15.20;99.90;;;;;;493607;241;28710;-83
2023/06/02 10:02:50;;;;;;;7.90;7.03;;;15.40;99.90;;;;;;493651;241;28701;-83
2023/06/02 10:04:51;;;;;;;7.60;6.30;;;15.10;99.90;;;;;;493548;241;28737;-82
2023/06/02 10:06:52;;;;;;;9.43;6.83;;;15.10;99.90;;;;;;493641;241;28716;-84
2023/06/02 10:08:54;;;;;;;9.37;6.97;;;15.20;99.90;;;;;;493600;241;28781;-81
2023/06/02 10:10:55;;;;;;;12.43;7.40;;;15.40;99.90;;;;;;493581;241;29291;-80
2023/06/02 10:12:56;;;;;;;7.50;6.67;;;15.80;99.90;;;;;;493534;241;29275;-81
2023/06/02 10:14:57;;;;;;;8.07;6.60;;;15.80;99.90;;;;;;493484;241;28882;-83
2023/06/02 10:16:59;;;;;;;8.93;6.80;;;15.60;99.90;;;;;;493503;241;28852;-84
2023/06/02 10:19:00;;;;;;;6.93;6.00;;;15.70;99.90;;;;;;493485;241;28829;-81
2023/06/02 10:21:01;;;;;;;6.77;5.97;;;15.70;99.90;;;;;;493364;241;28731;-83